Time;durP1;ratioP1;P1;durP2;ratioP2;P2;SDS_P1;SDS_P2;PMS_P1;PMS_P2;Temp;Humidity;BMP_temperature;BMP_pressure;BME280_temperature;BME280_humidity;BME280_pressure;Samples;Min_cycle;Max_cycle;Signal;HPM_P1;HPM_P2
2021/12/18 00:01:09;;;;;;;22.38;10.13;;;;;;;7.69;100.00;102915.28;5280587;28;20023;-79
2021/12/18 00:03:39;;;;;;;20.27;10.63;;;;;;;7.72;100.00;102910.13;5284444;28;20042;-78
2021/12/18 00:06:10;;;;;;;18.63;9.07;;;;;;;7.62;100.00;102917.78;5265877;28;20028;-81
2021/12/18 00:08:42;;;;;;;21.95;10.85;;;;;;;7.76;100.00;102906.72;5280273;28;20059;-80
2021/12/18 00:11:13;;;;;;;20.80;10.63;;;;;;;7.67;100.00;102901.38;5284374;28;20023;-80
2021/12/18 00:13:43;;;;;;;21.15;10.55;;;;;;;7.74;100.00;102897.13;5284104;28;20493;-83
2021/12/18 00:16:13;;;;;;;20.15;9.57;;;;;;;7.68;100.00;102897.94;5284974;28;20481;-79
2021/12/18 00:18:46;;;;;;;20.25;10.02;;;;;;;7.61;100.00;102898.72;5274036;28;20019;-81
2021/12/18 00:21:18;;;;;;;18.33;9.30;;;;;;;7.58;100.00;102889.97;5299953;22;20055;-79
2021/12/18 00:23:49;;;;;;;20.83;9.13;;;;;;;7.74;100.00;102892.78;5275112;28;20027;-79
2021/12/18 00:26:19;;;;;;;17.83;8.63;;;;;;;7.67;100.00;102885.78;5287496;28;20027;-79
2021/12/18 00:28:50;;;;;;;21.15;9.57;;;;;;;7.78;100.00;102888.50;5283522;28;20032;-79
2021/12/18 00:31:20;;;;;;;18.55;8.55;;;;;;;7.89;100.00;102885.19;5270223;28;20027;-78
2021/12/18 00:33:51;;;;;;;16.50;9.07;;;;;;;7.96;100.00;102889.63;5289580;28;20360;-79
2021/12/18 00:36:21;;;;;;;16.42;7.72;;;;;;;7.91;100.00;102901.69;5288172;28;20024;-79
2021/12/18 00:38:51;;;;;;;13.65;6.25;;;;;;;7.94;100.00;102896.56;5273950;28;20027;-79
2021/12/18 00:42:19;;;;;;;9.95;5.00;;;;;;;7.96;100.00;102894.84;5284659;28;20065;-79
2021/12/18 00:44:13;;;;;;;8.10;3.90;;;;;;;7.81;100.00;102899.84;5277429;28;20070;-79
2021/12/18 00:46:45;;;;;;;8.25;4.18;;;;;;;7.87;100.00;102897.31;5289870;28;20126;-79
2021/12/18 00:49:18;;;;;;;7.68;3.60;;;;;;;7.89;100.00;102893.00;5288798;28;20035;-79
2021/12/18 00:51:48;;;;;;;9.20;3.72;;;;;;;7.83;100.00;102899.84;5282162;28;20024;-79
2021/12/18 00:54:18;;;;;;;9.02;3.60;;;;;;;7.83;100.00;102903.34;5287397;28;20117;-79
2021/12/18 00:56:48;;;;;;;8.15;3.60;;;;;;;7.85;100.00;102895.56;5283412;28;20743;-79
2021/12/18 00:59:19;;;;;;;6.68;3.10;;;;;;;7.83;100.00;102892.94;5273342;28;20031;-79
2021/12/18 01:01:49;;;;;;;6.43;3.63;;;;;;;7.83;100.00;102892.03;5273726;28;20016;-79
2021/12/18 01:04:19;;;;;;;4.63;2.70;;;;;;;7.84;100.00;102899.88;5289587;28;20035;-79
2021/12/18 01:06:50;;;;;;;6.63;2.83;;;;;;;7.85;100.00;102901.63;5280602;28;20039;-79
2021/12/18 01:09:29;;;;;;;5.75;2.88;;;;;;;7.79;100.00;102911.97;5270088;28;20404;-79
2021/12/18 01:11:59;;;;;;;4.68;2.58;;;;;;;7.73;100.00;102911.00;5278252;28;20106;-78
2021/12/18 01:25:19;;;;;;;5.30;2.67;;;;;;;7.69;100.00;102904.88;5285243;28;20122;-79
2021/12/18 01:27:49;;;;;;;5.45;2.72;;;;;;;7.75;100.00;102904.09;5263546;28;20571;-79
2021/12/18 01:30:20;;;;;;;5.95;2.88;;;;;;;7.74;100.00;102913.63;5264538;28;20031;-79
2021/12/18 01:32:50;;;;;;;4.10;2.33;;;;;;;7.72;100.00;102909.28;5271849;28;20042;-79
2021/12/18 01:35:21;;;;;;;5.25;2.67;;;;;;;7.76;100.00;102911.94;5278101;28;20023;-79
2021/12/18 01:37:52;;;;;;;4.47;2.50;;;;;;;7.84;100.00;102910.28;5277383;28;20235;-78
2021/12/18 01:40:23;;;;;;;4.45;2.58;;;;;;;7.66;100.00;102910.06;5276994;28;20030;-79
2021/12/18 01:53:44;;;;;;;3.78;2.00;;;;;;;7.81;100.00;102905.06;5288891;28;20054;-78
2021/12/18 01:56:15;;;;;;;3.75;1.98;;;;;;;7.83;100.00;102903.34;5292690;28;20027;-79
2021/12/18 01:58:46;;;;;;;3.47;1.92;;;;;;;7.74;100.00;102905.81;5285720;28;20111;-79
2021/12/18 02:01:17;;;;;;;3.50;1.98;;;;;;;7.59;100.00;102903.03;5275660;28;20023;-79
2021/12/18 02:03:48;;;;;;;4.18;2.38;;;;;;;7.72;100.00;102899.72;5294027;28;20024;-79
2021/12/18 02:06:20;;;;;;;5.97;2.63;;;;;;;7.65;100.00;102887.50;5292268;28;20027;-79
2021/12/18 02:08:50;;;;;;;4.97;2.58;;;;;;;7.69;100.00;102883.22;5273445;28;20122;-79
2021/12/18 02:19:35;;;;;;;6.50;2.55;;;;;;;7.66;100.00;102881.44;5290913;28;20056;-79
2021/12/18 02:22:06;;;;;;;4.35;1.95;;;;;;;7.49;100.00;102885.53;5286421;28;20520;-79
2021/12/18 02:24:37;;;;;;;3.28;1.90;;;;;;;7.63;100.00;102886.59;5293646;28;20054;-79
2021/12/18 02:27:07;;;;;;;3.20;1.80;;;;;;;7.61;100.00;102884.81;5292975;28;20532;-78
2021/12/18 02:29:39;;;;;;;2.92;1.77;;;;;;;7.57;100.00;102883.03;5278403;28;20032;-79
2021/12/18 02:32:11;;;;;;;4.57;2.03;;;;;;;7.49;100.00;102882.06;5282526;28;20030;-79
2021/12/18 02:34:44;;;;;;;3.47;1.83;;;;;;;7.62;100.00;102889.16;5292946;28;20047;-79
2021/12/18 02:37:22;;;;;;;4.47;1.98;;;;;;;7.62;100.00;102884.84;5281227;28;20024;-79
2021/12/18 02:42:51;;;;;;;3.75;2.28;;;;;;;7.58;100.00;102884.78;5275598;28;20039;-78
2021/12/18 02:45:22;;;;;;;4.35;2.33;;;;;;;7.54;100.00;102873.44;5293477;28;20039;-78
2021/12/18 02:47:53;;;;;;;3.58;1.80;;;;;;;7.49;100.00;102869.91;5292490;28;20020;-79
2021/12/18 02:50:24;;;;;;;4.28;2.80;;;;;;;7.60;100.00;102876.16;5293037;28;20023;-79
2021/12/18 02:52:54;;;;;;;3.97;2.20;;;;;;;7.64;100.00;102874.44;5293118;28;20053;-79
2021/12/18 02:55:24;;;;;;;3.75;1.92;;;;;;;7.67;100.00;102869.31;5293901;28;20478;-79
2021/12/18 02:57:54;;;;;;;4.80;2.10;;;;;;;7.59;100.00;102877.00;5291977;28;20023;-79
2021/12/18 03:00:27;;;;;;;4.63;2.45;;;;;;;7.39;100.00;102870.63;5275037;28;20031;-79
2021/12/18 03:02:58;;;;;;;4.53;2.40;;;;;;;7.45;100.00;102865.53;5290310;28;20035;-79
2021/12/18 03:05:35;;;;;;;5.15;2.33;;;;;;;7.36;100.00;102868.00;5291142;28;20477;-78
2021/12/18 03:08:13;;;;;;;3.72;2.03;;;;;;;7.27;100.00;102871.34;5272975;28;20035;-79
2021/12/18 03:22:42;;;;;;;2.70;1.60;;;;;;;7.29;100.00;102860.97;5290192;28;20031;-78
2021/12/18 03:25:03;;;;;;;2.78;1.30;;;;;;;7.39;100.00;102864.56;5291665;28;20039;-79
2021/12/18 03:27:34;;;;;;;2.92;1.40;;;;;;;7.37;100.00;102864.53;5282229;28;20027;-79
2021/12/18 03:30:06;;;;;;;1.75;1.10;;;;;;;7.40;100.00;102850.72;5274539;28;20500;-79
2021/12/18 03:32:36;;;;;;;3.25;1.38;;;;;;;7.38;100.00;102855.88;5284639;28;20020;-78
2021/12/18 03:35:07;;;;;;;2.25;1.20;;;;;;;7.45;100.00;102849.91;5288417;28;20084;-79
2021/12/18 03:37:39;;;;;;;3.42;1.35;;;;;;;7.40;100.00;102859.41;5279079;28;20038;-79
2021/12/18 03:40:13;;;;;;;2.17;1.35;;;;;;;7.39;100.00;102854.16;5274005;28;20035;-78
2021/12/18 03:42:45;;;;;;;2.40;1.23;;;;;;;7.45;100.00;102851.63;5290270;28;20023;-78
2021/12/18 03:45:18;;;;;;;3.17;1.52;;;;;;;7.42;100.00;102852.50;5289674;28;20037;-78
2021/12/18 03:47:49;;;;;;;3.08;1.50;;;;;;;7.40;100.00;102848.09;5289309;28;20497;-78
2021/12/18 03:50:21;;;;;;;2.85;1.50;;;;;;;7.43;100.00;102854.25;5290114;28;20114;-78
2021/12/18 03:52:51;;;;;;;3.13;1.30;;;;;;;7.54;100.00;102850.03;5289949;27;20069;-79
2021/12/18 03:55:21;;;;;;;2.13;1.10;;;;;;;7.62;100.00;102851.03;5289621;28;20466;-78
2021/12/18 03:57:52;;;;;;;3.47;1.88;;;;;;;7.48;100.00;102852.56;5288382;28;20380;-78
2021/12/18 04:00:23;;;;;;;5.03;1.77;;;;;;;7.51;100.00;102847.38;5271161;28;20318;-78
2021/12/18 04:02:53;;;;;;;4.07;1.85;;;;;;;7.38;100.00;102855.88;5287042;28;20540;-79
2021/12/18 04:05:24;;;;;;;2.85;1.67;;;;;;;7.37;100.00;102848.06;5288278;28;20380;-78
2021/12/18 04:08:08;;;;;;;3.15;1.92;;;;;;;7.50;100.00;102856.06;5277811;28;20028;-79
2021/12/18 04:10:40;;;;;;;3.67;1.80;;;;;;;7.41;100.00;102842.94;5280543;28;20264;-78
2021/12/18 04:13:10;;;;;;;3.28;1.65;;;;;;;7.43;100.00;102856.84;5289572;28;20043;-78
2021/12/18 04:15:41;;;;;;;4.30;1.80;;;;;;;7.49;100.00;102854.31;5289845;28;20034;-78
2021/12/18 04:18:11;;;;;;;5.20;2.10;;;;;;;7.64;100.00;102849.31;5289332;27;20024;-79
2021/12/18 04:20:41;;;;;;;3.75;1.95;;;;;;;7.55;100.00;102841.38;5289032;28;20084;-79
2021/12/18 04:23:12;;;;;;;4.60;2.00;;;;;;;7.46;100.00;102842.97;5288079;28;20035;-79
2021/12/18 04:25:43;;;;;;;6.00;2.20;;;;;;;7.47;100.00;102837.81;5288679;28;20626;-78
2021/12/18 04:28:13;;;;;;;4.07;2.30;;;;;;;7.54;100.00;102836.16;5284065;28;20036;-79
2021/12/18 04:30:43;;;;;;;3.85;2.35;;;;;;;7.52;100.00;102841.34;5272845;28;20027;-79
2021/12/18 04:33:14;;;;;;;4.43;2.50;;;;;;;7.45;100.00;102831.72;5288037;28;20603;-79
2021/12/18 04:35:44;;;;;;;4.80;2.38;;;;;;;7.48;100.00;102826.53;5289226;28;20077;-78
2021/12/18 04:38:15;;;;;;;5.55;2.60;;;;;;;7.44;100.00;102823.88;5275207;28;20039;-79
2021/12/18 04:40:45;;;;;;;5.70;2.65;;;;;;;7.42;100.00;102821.28;5281068;28;20019;-78
2021/12/18 04:43:16;;;;;;;5.25;2.53;;;;;;;7.45;100.00;102831.72;5289378;27;20036;-78
2021/12/18 04:45:46;;;;;;;5.40;2.60;;;;;;;7.56;100.00;102835.31;5290213;28;20042;-79
2021/12/18 04:48:16;;;;;;;4.63;2.25;;;;;;;7.56;100.00;102835.31;5289373;28;20269;-78
2021/12/18 04:50:47;;;;;;;4.47;2.17;;;;;;;7.52;100.00;102838.72;5288823;28;20047;-79
2021/12/18 04:53:17;;;;;;;6.00;2.20;;;;;;;7.49;100.00;102836.09;5289608;28;20042;-79
2021/12/18 04:55:48;;;;;;;3.88;2.17;;;;;;;7.47;100.00;102835.19;5289815;28;20079;-79
2021/12/18 04:58:18;;;;;;;3.70;1.90;;;;;;;7.45;100.00;102841.22;5282969;28;20123;-79
2021/12/18 05:00:48;;;;;;;3.67;1.80;;;;;;;7.48;100.00;102839.56;5272675;28;20060;-78
2021/12/18 05:03:19;;;;;;;3.45;1.75;;;;;;;7.48;100.00;102851.66;5289071;28;20051;-78
2021/12/18 05:05:49;;;;;;;3.28;1.45;;;;;;;7.48;100.00;102842.16;5289511;28;20043;-78
2021/12/18 05:08:20;;;;;;;4.97;1.92;;;;;;;7.53;100.00;102837.88;5273295;28;20028;-78
2021/12/18 05:10:50;;;;;;;3.63;1.70;;;;;;;7.37;100.00;102835.06;5280453;28;20477;-79
2021/12/18 05:13:20;;;;;;;3.53;2.00;;;;;;;7.47;100.00;102837.81;5288468;28;20049;-78
2021/12/18 05:15:51;;;;;;;4.30;1.67;;;;;;;7.43;100.00;102845.53;5288032;28;20064;-78
2021/12/18 05:18:21;;;;;;;5.40;1.88;;;;;;;7.45;100.00;102842.13;5292225;28;20400;-78
2021/12/18 05:20:51;;;;;;;3.15;1.95;;;;;;;7.48;100.00;102846.47;5291672;28;20026;-78
2021/12/18 05:23:21;;;;;;;3.88;1.95;;;;;;;7.43;100.00;102845.53;5291650;28;20035;-78
2021/12/18 05:25:52;;;;;;;3.97;1.70;;;;;;;7.53;100.00;102843.06;5292733;28;20024;-79
2021/12/18 05:28:22;;;;;;;3.92;1.90;;;;;;;7.62;100.00;102844.94;5285446;28;20482;-79
2021/12/18 05:30:52;;;;;;;3.80;2.00;;;;;;;7.53;100.00;102840.47;5274611;28;20102;-78
2021/12/18 05:33:22;;;;;;;3.70;1.90;;;;;;;7.51;100.00;102841.34;5291283;28;20024;-78
2021/12/18 05:35:53;;;;;;;3.13;1.80;;;;;;;7.47;100.00;102847.31;5292050;27;20119;-78
2021/12/18 05:38:23;;;;;;;3.35;1.75;;;;;;;7.55;100.00;102843.97;5276379;28;20034;-79
2021/12/18 05:40:53;;;;;;;3.92;1.80;;;;;;;7.40;100.00;102846.41;5284014;28;20025;-78
2021/12/18 05:43:24;;;;;;;2.83;1.70;;;;;;;7.41;100.00;102847.25;5292670;28;20027;-79
2021/12/18 05:45:54;;;;;;;2.70;1.65;;;;;;;7.26;100.00;102838.38;5291525;28;20031;-78
2021/12/18 05:48:24;;;;;;;3.13;1.48;;;;;;;7.29;100.00;102845.38;5293358;28;20045;-78
2021/12/18 05:50:54;;;;;;;2.17;1.27;;;;;;;7.14;100.00;102846.84;5292441;28;20050;-78
2021/12/18 05:53:25;;;;;;;2.15;1.30;;;;;;;7.22;100.00;102845.25;5292009;28;20023;-79
2021/12/18 05:55:55;;;;;;;2.78;1.48;;;;;;;7.22;100.00;102851.31;5288871;28;20023;-78
2021/12/18 05:58:25;;;;;;;2.78;1.70;;;;;;;6.96;100.00;102849.19;5284171;28;20556;-79
2021/12/18 06:00:55;;;;;;;4.72;1.40;;;;;;;7.14;100.00;102839.06;5275200;28;20030;-79
2021/12/18 06:03:26;;;;;;;2.20;1.10;;;;;;;7.13;100.00;102841.66;5289661;28;20035;-78
2021/12/18 06:05:56;;;;;;;5.38;1.50;;;;;;;7.06;100.00;102840.69;5291334;28;20023;-78
2021/12/18 06:08:27;;;;;;;3.10;1.40;;;;;;;7.01;100.00;102844.94;5275952;28;20035;-78
2021/12/18 06:11:04;;;;;;;3.53;1.50;;;;;;;7.09;100.00;102842.47;5286803;28;20106;-79
2021/12/18 06:13:35;;;;;;;3.22;1.33;;;;;;;6.95;100.00;102841.38;5283999;28;20019;-78
2021/12/18 06:16:06;;;;;;;3.30;1.40;;;;;;;6.93;100.00;102856.06;5290561;28;20484;-78
2021/12/18 06:18:40;;;;;;;3.15;1.50;;;;;;;7.03;100.00;102855.34;5291312;28;20039;-78
2021/12/18 06:21:13;;;;;;;3.72;1.58;;;;;;;7.01;100.00;102846.66;5301293;22;20048;-80
2021/12/18 06:23:47;;;;;;;2.83;1.45;;;;;;;6.86;100.00;102846.41;5279501;28;20480;-80
2021/12/18 06:26:19;;;;;;;4.57;1.50;;;;;;;6.98;100.00;102851.81;5276957;28;20032;-80
2021/12/18 06:28:49;;;;;;;3.33;1.60;;;;;;;7.04;100.00;102852.78;5276861;28;20031;-80
2021/12/18 06:31:19;;;;;;;3.17;1.42;;;;;;;6.98;100.00;102846.63;5267177;28;20138;-80
2021/12/18 06:33:50;;;;;;;2.25;1.33;;;;;;;6.92;100.00;102851.72;5268494;28;20028;-80
2021/12/18 06:36:20;;;;;;;2.47;1.35;;;;;;;6.85;100.00;102852.47;5267544;28;20034;-80
2021/12/18 06:38:50;;;;;;;3.70;1.60;;;;;;;6.85;100.00;102848.16;5260130;28;20028;-80
2021/12/18 06:41:21;;;;;;;2.85;1.33;;;;;;;6.92;100.00;102842.19;5267447;28;20016;-80
2021/12/18 06:43:51;;;;;;;3.10;1.80;;;;;;;6.92;100.00;102847.38;5267690;28;20157;-80
2021/12/18 06:46:21;;;;;;;3.28;1.60;;;;;;;6.94;100.00;102847.44;5269700;28;20039;-80
2021/12/18 06:48:52;;;;;;;2.92;1.67;;;;;;;6.92;100.00;102838.72;5269257;28;20031;-80
2021/12/18 06:51:22;;;;;;;3.92;2.00;;;;;;;6.92;100.00;102843.94;5268221;28;20052;-80
2021/12/18 06:53:52;;;;;;;3.03;1.90;;;;;;;6.96;100.00;102843.13;5268220;28;20500;-80
2021/12/18 06:56:23;;;;;;;4.95;1.90;;;;;;;7.06;100.00;102845.88;5269026;28;20030;-80
2021/12/18 06:58:53;;;;;;;4.90;2.30;;;;;;;7.01;100.00;102847.53;5264154;28;20016;-80
2021/12/18 07:01:24;;;;;;;4.30;2.13;;;;;;;7.00;100.00;102852.72;5260824;28;20044;-80
2021/12/18 07:03:54;;;;;;;3.72;2.30;;;;;;;7.06;100.00;102855.38;5267151;28;20024;-80
2021/12/18 07:06:24;;;;;;;3.95;2.08;;;;;;;7.09;100.00;102865.88;5264942;28;20489;-80
2021/12/18 07:08:55;;;;;;;4.70;2.13;;;;;;;7.00;100.00;102857.91;5260619;28;20024;-80
2021/12/18 07:11:25;;;;;;;4.68;2.25;;;;;;;6.94;100.00;102856.09;5266622;28;20076;-80
2021/12/18 07:13:55;;;;;;;5.28;3.30;;;;;;;6.96;100.00;102856.13;5268630;28;20553;-80
2021/12/18 07:16:26;;;;;;;4.90;2.83;;;;;;;7.04;100.00;102857.97;5265781;28;20020;-80
2021/12/18 07:18:56;;;;;;;6.57;3.92;;;;;;;7.14;100.00;102857.25;5255931;28;20034;-80
2021/12/18 07:21:26;;;;;;;6.65;3.38;;;;;;;7.07;100.00;102857.16;5256599;28;20027;-80
2021/12/18 07:23:56;;;;;;;6.20;3.75;;;;;;;7.07;100.00;102857.16;5253192;28;20050;-80
2021/12/18 07:26:28;;;;;;;6.78;3.80;;;;;;;7.20;100.00;102859.06;5246613;28;20028;-80
2021/12/18 07:28:59;;;;;;;6.72;4.28;;;;;;;7.13;100.00;102858.09;5247749;28;20024;-80
2021/12/18 07:31:29;;;;;;;7.50;4.43;;;;;;;7.03;100.00;102855.34;5250833;28;20021;-80
2021/12/18 07:34:00;;;;;;;6.55;4.13;;;;;;;7.13;100.00;102857.25;5258226;28;20388;-80
2021/12/18 07:36:30;;;;;;;8.55;4.38;;;;;;;7.16;100.00;102852.97;5265687;28;20032;-80
2021/12/18 07:39:02;;;;;;;6.85;4.05;;;;;;;7.06;100.00;102852.78;5258484;28;20119;-80
2021/12/18 07:41:33;;;;;;;5.40;3.72;;;;;;;7.07;100.00;102851.97;5266654;28;20110;-80
2021/12/18 07:44:06;;;;;;;7.32;3.60;;;;;;;7.05;100.00;102853.66;5266676;28;20123;-80
2021/12/18 07:46:38;;;;;;;8.93;4.25;;;;;;;7.06;100.00;102852.78;5267632;28;20016;-80
2021/12/18 07:49:09;;;;;;;7.18;4.03;;;;;;;7.02;100.00;102858.81;5268883;28;20412;-79
2021/12/18 07:51:39;;;;;;;7.45;4.60;;;;;;;7.07;100.00;102851.97;5257867;28;20021;-80
2021/12/18 07:54:09;;;;;;;6.60;3.90;;;;;;;6.93;100.00;102858.69;5252519;28;20059;-80
2021/12/18 07:56:40;;;;;;;6.53;3.85;;;;;;;7.18;100.00;102842.56;5251282;28;20060;-80
2021/12/18 07:59:10;;;;;;;7.65;4.00;;;;;;;7.14;100.00;102851.19;5250868;28;20037;-81
2021/12/18 08:01:40;;;;;;;7.97;4.20;;;;;;;6.98;100.00;102850.09;5244984;28;20024;-82
2021/12/18 08:04:11;;;;;;;9.40;4.32;;;;;;;6.94;100.00;102844.81;5251970;28;20032;-80
2021/12/18 08:06:41;;;;;;;7.57;4.53;;;;;;;7.14;100.00;102843.41;5250762;28;20082;-80
2021/12/18 08:09:11;;;;;;;11.55;6.55;;;;;;;7.26;100.00;102843.59;5252918;28;20028;-80
2021/12/18 08:11:41;;;;;;;10.10;6.65;;;;;;;7.02;100.00;102838.91;5251288;28;20080;-80
2021/12/18 08:14:12;;;;;;;11.77;7.40;;;;;;;7.13;100.00;102846.84;5255201;28;20086;-80
2021/12/18 08:16:42;;;;;;;14.60;7.40;;;;;;;6.99;100.00;102854.44;5260368;28;20483;-81
2021/12/18 08:19:12;;;;;;;11.80;6.50;;;;;;;7.06;100.00;102848.47;5266566;28;20032;-80
2021/12/18 08:21:43;;;;;;;11.65;6.57;;;;;;;7.06;100.00;102855.38;5264685;28;20020;-80
2021/12/18 08:24:13;;;;;;;11.50;6.57;;;;;;;7.12;100.00;102837.31;5265252;28;20057;-81
2021/12/18 08:26:43;;;;;;;11.63;6.40;;;;;;;7.13;100.00;102852.03;5266120;28;20022;-81
2021/12/18 08:29:13;;;;;;;13.43;6.97;;;;;;;7.26;100.00;102853.97;5259572;28;20024;-82
2021/12/18 08:31:45;;;;;;;14.32;7.90;;;;;;;7.26;100.00;102856.59;5260570;28;20016;-81
2021/12/18 08:34:15;;;;;;;14.85;7.75;;;;;;;7.21;100.00;102846.09;5265873;28;20032;-79
2021/12/18 08:36:46;;;;;;;15.95;7.60;;;;;;;7.36;100.00;102838.53;5264203;28;20029;-82
2021/12/18 08:39:17;;;;;;;14.40;7.13;;;;;;;7.28;100.00;102841.88;5257113;28;20170;-80
2021/12/18 08:41:48;;;;;;;17.83;10.00;;;;;;;7.30;100.00;102841.03;5265910;28;20103;-78
2021/12/18 08:44:18;;;;;;;18.38;9.65;;;;;;;7.37;100.00;102838.53;5265873;28;20177;-80
2021/12/18 08:46:48;;;;;;;21.42;12.48;;;;;;;7.25;100.00;102837.50;5265764;28;20086;-81
2021/12/18 08:49:19;;;;;;;14.35;7.80;;;;;;;7.38;100.00;102840.28;5264993;28;20116;-81
2021/12/18 08:51:49;;;;;;;12.25;6.85;;;;;;;7.37;100.00;102833.31;5263154;28;20417;-79
2021/12/18 08:54:19;;;;;;;12.43;7.70;;;;;;;7.38;100.00;102840.28;5258528;28;20312;-81
2021/12/18 08:56:50;;;;;;;10.38;6.57;;;;;;;7.43;100.00;102833.44;5264952;28;20038;-81
2021/12/18 08:59:20;;;;;;;8.50;5.53;;;;;;;7.38;100.00;102835.06;5259217;28;20023;-82
2021/12/18 09:01:50;;;;;;;10.90;4.93;;;;;;;7.44;100.00;102835.16;5252842;28;20138;-82
2021/12/18 09:04:20;;;;;;;7.03;4.30;;;;;;;7.40;100.00;102828.19;5258811;28;20028;-80
2021/12/18 09:06:51;;;;;;;10.05;6.63;;;;;;;7.47;100.00;102836.91;5259758;28;20025;-81
2021/12/18 09:09:21;;;;;;;8.63;4.63;;;;;;;7.36;100.00;102841.13;5246753;28;20028;-80
2021/12/18 09:11:52;;;;;;;8.70;5.90;;;;;;;7.43;100.00;102841.22;5251997;28;20428;-82
2021/12/18 09:14:22;;;;;;;8.32;4.93;;;;;;;7.50;100.00;102826.56;5258777;28;20028;-81
2021/12/18 09:16:54;;;;;;;11.60;6.35;;;;;;;7.66;100.00;102823.31;5261002;28;20024;-81
2021/12/18 09:19:24;;;;;;;8.80;5.50;;;;;;;7.54;100.00;102821.41;5261550;28;20455;-81
2021/12/18 09:21:55;;;;;;;7.78;4.90;;;;;;;7.63;100.00;102813.72;5262938;28;20096;-81
2021/12/18 09:24:26;;;;;;;6.45;4.35;;;;;;;7.59;100.00;102817.16;5261571;28;20028;-81
2021/12/18 09:26:56;;;;;;;6.90;3.70;;;;;;;7.56;100.00;102819.69;5261686;28;20030;-79
2021/12/18 09:29:26;;;;;;;9.85;4.80;;;;;;;7.59;100.00;102817.16;5259374;28;20460;-82
2021/12/18 09:31:57;;;;;;;5.30;3.08;;;;;;;7.58;100.00;102809.31;5258684;28;20024;-81
2021/12/18 09:34:29;;;;;;;9.00;4.47;;;;;;;7.64;100.00;102810.28;5262254;28;20507;-81
2021/12/18 09:37:00;;;;;;;6.18;3.35;;;;;;;7.71;100.00;102813.81;5251871;28;20016;-82
2021/12/18 09:39:31;;;;;;;8.18;3.80;;;;;;;7.59;100.00;102813.66;5258262;28;20032;-83
2021/12/18 09:42:02;;;;;;;7.25;4.57;;;;;;;7.48;100.00;102805.72;5264883;28;20121;-80
2021/12/18 09:44:34;;;;;;;5.57;3.63;;;;;;;7.49;100.00;102811.81;5264553;28;20032;-80
2021/12/18 09:47:05;;;;;;;4.75;2.80;;;;;;;7.58;100.00;102802.41;5264851;28;20023;-80
2021/12/18 09:49:35;;;;;;;7.22;4.18;;;;;;;7.55;100.00;102797.13;5264546;28;20034;-81
2021/12/18 09:52:05;;;;;;;5.70;3.50;;;;;;;7.63;100.00;102795.50;5260301;28;20454;-80
2021/12/18 09:54:36;;;;;;;9.30;4.97;;;;;;;7.69;100.00;102790.38;5265033;28;20028;-82
2021/12/18 09:57:08;;;;;;;7.70;3.70;;;;;;;7.64;100.00;102794.66;5264574;28;20035;-81
2021/12/18 09:59:38;;;;;;;7.65;3.88;;;;;;;7.59;100.00;102785.94;5260881;28;20024;-82
2021/12/18 10:02:09;;;;;;;10.73;5.45;;;;;;;7.81;100.00;102784.41;5259008;28;20039;-80
2021/12/18 10:04:39;;;;;;;7.40;4.18;;;;;;;7.69;100.00;102782.56;5264881;28;20130;-79
2021/12/18 10:07:27;;;;;;;8.90;5.47;;;;;;;7.68;100.00;102767.81;5258539;28;20158;-80
2021/12/18 10:10:00;;;;;;;7.07;3.80;;;;;;;7.77;100.00;102777.44;5261314;28;20024;-80
2021/12/18 10:12:32;;;;;;;7.65;4.80;;;;;;;7.62;100.00;102772.94;5258764;28;20024;-83
2021/12/18 10:15:13;;;;;;;14.50;8.32;;;;;;;7.66;100.00;102764.31;5267002;28;20024;-80
2021/12/18 10:17:45;;;;;;;8.23;5.47;;;;;;;7.67;100.00;102763.44;5266321;28;20773;-80
2021/12/18 10:20:23;;;;;;;10.75;5.43;;;;;;;7.68;100.00;102760.00;5267776;28;20126;-80
2021/12/18 10:23:04;;;;;;;8.38;4.95;;;;;;;7.66;100.00;102759.09;5266188;28;20053;-80
2021/12/18 10:25:40;;;;;;;9.65;4.88;;;;;;;7.75;100.00;102760.94;5250170;28;20027;-82
2021/12/18 10:28:18;;;;;;;7.43;4.47;;;;;;;7.59;100.00;102757.31;5266574;28;20028;-82
2021/12/18 10:30:54;;;;;;;8.50;4.75;;;;;;;7.77;100.00;102752.31;5261848;28;20429;-81
2021/12/18 10:33:29;;;;;;;8.10;4.20;;;;;;;7.68;100.00;102741.78;5266407;28;20080;-80
2021/12/18 10:36:00;;;;;;;7.00;4.30;;;;;;;7.76;100.00;102740.16;5260244;28;20117;-81
2021/12/18 10:38:51;;;;;;;6.78;3.88;;;;;;;7.79;100.00;102732.38;5260857;28;20055;-83
2021/12/18 10:41:27;;;;;;;6.70;3.88;;;;;;;7.77;100.00;102735.78;5264320;28;20023;-83
2021/12/18 10:44:10;;;;;;;7.45;4.00;;;;;;;7.85;100.00;102732.41;5267222;28;20039;-81
2021/12/18 10:46:43;;;;;;;6.80;3.97;;;;;;;7.79;100.00;102729.75;5277284;28;20073;-80
2021/12/18 10:49:15;;;;;;;7.10;3.72;;;;;;;7.76;100.00;102728.84;5266906;28;20123;-81
2021/12/18 10:51:48;;;;;;;6.70;3.30;;;;;;;7.72;100.00;102727.06;5266233;28;20043;-79
2021/12/18 10:54:22;;;;;;;50.00;16.70;;;;;;;7.76;100.00;102729.72;5266372;28;20135;-81
2021/12/18 10:56:55;;;;;;;18.98;7.68;;;;;;;7.75;100.00;102722.78;5267169;28;20024;-81
2021/12/18 10:59:32;;;;;;;12.70;6.15;;;;;;;7.69;100.00;102730.50;5263037;28;20247;-79
2021/12/18 11:02:05;;;;;;;7.47;3.72;;;;;;;7.66;100.00;102725.28;5259207;28;20155;-80
2021/12/18 11:04:39;;;;;;;7.85;4.32;;;;;;;7.79;100.00;102721.94;5264065;28;20044;-81
2021/12/18 11:07:29;;;;;;;8.82;4.68;;;;;;;7.81;100.00;102721.94;5262058;28;20553;-80
2021/12/18 11:10:40;;;;;;;6.28;3.97;;;;;;;7.79;100.00;102718.47;5261485;28;20020;-80
2021/12/18 11:15:59;;;;;;;8.43;3.58;;;;;;;7.88;100.00;102705.53;5264054;28;20028;-80
2021/12/18 11:18:32;;;;;;;5.85;3.05;;;;;;;7.87;100.00;102709.00;5253943;28;20020;-80
2021/12/18 11:21:02;;;;;;;7.35;3.53;;;;;;;7.98;100.00;102705.66;5250766;28;20020;-83
2021/12/18 11:24:06;;;;;;;5.95;3.22;;;;;;;7.88;100.00;102693.38;5248355;28;20504;-80
2021/12/18 11:26:44;;;;;;;6.30;3.05;;;;;;;7.95;100.00;102690.00;5254274;28;20485;-83
2021/12/18 11:29:44;;;;;;;5.15;3.60;;;;;;;7.93;100.00;102683.03;5260394;28;20470;-82
2021/12/18 11:32:20;;;;;;;6.38;3.00;;;;;;;7.98;100.00;102684.81;5252404;28;20046;-80
2021/12/18 11:34:54;;;;;;;5.10;3.08;;;;;;;7.91;100.00;102680.41;5264266;28;20511;-81
2021/12/18 11:37:25;;;;;;;4.93;2.85;;;;;;;7.92;100.00;102682.16;5258591;28;20459;-80
2021/12/18 11:39:58;;;;;;;5.25;3.03;;;;;;;7.96;100.00;102681.31;5257256;28;20031;-80
2021/12/18 11:42:31;;;;;;;4.22;2.70;;;;;;;7.90;100.00;102681.25;5263168;28;20397;-80
2021/12/18 11:45:05;;;;;;;5.55;3.13;;;;;;;7.87;100.00;102670.81;5256017;28;20038;-83
2021/12/18 11:47:38;;;;;;;6.15;3.17;;;;;;;7.91;100.00;102669.13;5259772;28;20023;-82
2021/12/18 11:50:38;;;;;;;5.20;2.80;;;;;;;7.85;100.00;102672.53;5266301;28;20048;-80
2021/12/18 11:53:14;;;;;;;4.78;2.83;;;;;;;7.80;100.00;102657.72;5260022;28;20260;-79
2021/12/18 11:55:48;;;;;;;5.07;3.30;;;;;;;7.96;100.00;102655.28;5265631;28;20039;-82
2021/12/18 11:58:24;;;;;;;6.32;3.22;;;;;;;7.97;100.00;102661.34;5263595;28;20034;-82
2021/12/18 12:01:05;;;;;;;5.65;3.30;;;;;;;7.95;100.00;102658.75;5257528;28;20034;-79
2021/12/18 12:03:39;;;;;;;5.75;3.30;;;;;;;7.93;100.00;102655.28;5258662;28;20032;-82
2021/12/18 12:06:28;;;;;;;4.65;3.08;;;;;;;7.90;100.00;102650.00;5264363;28;20034;-80
2021/12/18 12:09:55;;;;;;;6.00;3.25;;;;;;;7.84;100.00;102657.78;5256355;28;20035;-81
2021/12/18 12:12:13;;;;;;;6.15;3.03;;;;;;;7.86;100.00;102653.47;5256804;28;20047;-83
2021/12/18 12:14:44;;;;;;;6.00;3.20;;;;;;;7.87;100.00;102656.94;5255243;28;20095;-83
2021/12/18 12:17:27;;;;;;;4.13;2.60;;;;;;;7.75;100.00;102649.91;5260329;28;20108;-81
2021/12/18 12:20:01;;;;;;;4.70;2.97;;;;;;;7.78;100.00;102660.34;5265286;28;20043;-80
2021/12/18 12:22:53;;;;;;;4.53;2.55;;;;;;;7.74;100.00;102655.09;5281047;22;20385;-78
2021/12/18 12:25:44;;;;;;;4.72;2.58;;;;;;;7.73;100.00;102654.19;5276182;28;20042;-80
2021/12/18 12:28:25;;;;;;;4.75;2.88;;;;;;;7.79;100.00;102650.78;5280029;28;20520;-79
2021/12/18 12:30:56;;;;;;;6.25;3.25;;;;;;;7.68;100.00;102652.44;5271725;28;20036;-78
2021/12/18 12:33:28;;;;;;;7.17;3.47;;;;;;;7.71;100.00;102652.47;5260389;28;20043;-79
2021/12/18 12:36:14;;;;;;;6.57;3.17;;;;;;;7.71;100.00;102635.09;5257369;28;20287;-78